createdAt,value
2019-05-17T00:04:36.363Z,17.77
2019-05-17T00:09:39.776Z,18.37
2019-05-17T00:14:43.061Z,18.83
2019-05-17T00:19:46.590Z,19.37
2019-05-17T00:24:50.125Z,20.17
2019-05-17T00:29:53.668Z,18.53
2019-05-17T00:34:56.971Z,19.57
2019-05-17T00:40:00.371Z,18.93
2019-05-17T00:45:08.301Z,20.00
2019-05-17T00:50:11.666Z,19.97
2019-05-17T00:55:17.307Z,20.03
2019-05-17T01:00:20.474Z,21.43
2019-05-17T01:05:23.773Z,21.70
2019-05-17T01:10:27.286Z,22.20
2019-05-17T01:15:30.613Z,21.87
2019-05-17T01:20:33.899Z,22.00
2019-05-17T01:25:37.523Z,21.53
2019-05-17T01:30:40.808Z,22.40
2019-05-17T01:35:46.497Z,22.33
2019-05-17T01:40:49.277Z,22.77
2019-05-17T01:45:52.578Z,23.30
2019-05-17T01:50:56.821Z,24.27
2019-05-17T01:56:00.210Z,23.70
2019-05-17T02:01:03.593Z,23.50
2019-05-17T02:06:07.588Z,23.40
2019-05-17T02:11:11.049Z,22.93
2019-05-17T02:16:16.386Z,23.03
2019-05-17T02:21:19.361Z,22.67
2019-05-17T02:26:22.982Z,22.73
2019-05-17T02:31:26.838Z,22.50
2019-05-17T02:36:33.052Z,22.27
2019-05-17T02:41:35.572Z,21.90
2019-05-17T02:46:38.863Z,23.47
2019-05-17T02:51:43.085Z,22.03
2019-05-17T02:56:46.554Z,21.37
2019-05-17T03:01:52.705Z,21.63
2019-05-17T03:06:54.877Z,21.43
2019-05-17T03:11:58.407Z,22.47
2019-05-17T03:17:03.231Z,21.10
2019-05-17T03:22:07.963Z,21.90
2019-05-17T03:27:13.413Z,21.50
2019-05-17T03:32:18.028Z,21.77
2019-05-17T03:37:30.004Z,24.00
2019-05-17T03:42:27.012Z,22.57
2019-05-17T03:47:33.311Z,22.10
2019-05-17T03:52:35.568Z,22.30
2019-05-17T03:57:38.867Z,20.93
2019-05-17T04:02:44.458Z,23.30
2019-05-17T04:07:47.432Z,23.23
2019-05-17T04:12:53.063Z,23.10
2019-05-17T04:17:55.987Z,20.43
2019-05-17T04:23:04.000Z,22.80
2019-05-17T04:28:06.092Z,21.47
2019-05-17T04:33:12.640Z,20.67
2019-05-17T04:38:14.407Z,19.13
2019-05-17T04:43:17.953Z,20.27
2019-05-17T04:48:23.284Z,19.57
2019-05-17T04:53:26.354Z,19.40
2019-05-17T04:58:29.650Z,18.97
2019-05-17T05:03:32.945Z,18.87
2019-05-17T05:08:36.232Z,18.23
2019-05-17T05:13:42.420Z,18.80
2019-05-17T05:18:44.542Z,17.10
2019-05-17T05:23:47.845Z,16.40
2019-05-17T05:28:52.911Z,16.40
2019-05-17T05:33:56.271Z,16.00
2019-05-17T05:38:59.564Z,14.37
2019-05-17T05:44:02.873Z,15.47
2019-05-17T05:49:06.417Z,15.30
2019-05-17T05:54:12.106Z,15.63
2019-05-17T05:59:14.718Z,16.47
2019-05-17T06:04:18.687Z,15.77
2019-05-17T06:09:22.398Z,15.47
2019-05-17T06:14:25.732Z,14.63
2019-05-17T06:19:31.395Z,13.87
2019-05-17T06:24:34.288Z,14.70
2019-05-17T06:29:37.653Z,14.20
2019-05-17T06:34:42.237Z,13.30
2019-05-17T06:39:45.644Z,15.27
2019-05-17T06:44:49.184Z,14.73
2019-05-17T06:49:53.549Z,14.57
2019-05-17T06:54:56.942Z,14.40
2019-05-17T07:00:03.164Z,13.27
2019-05-17T07:05:09.937Z,11.63
2019-05-17T07:10:13.439Z,13.10
2019-05-17T07:15:16.892Z,11.10
2019-05-17T07:20:20.449Z,11.53
2019-05-17T07:25:23.714Z,12.37
2019-05-17T07:30:27.317Z,11.10
2019-05-17T07:35:30.609Z,10.80
2019-05-17T07:40:33.905Z,10.30
2019-05-17T07:45:37.186Z,9.93
2019-05-17T07:50:42.034Z,10.10
2019-05-17T07:55:45.312Z,9.03
2019-05-17T08:00:51.211Z,7.70
2019-05-17T08:05:53.616Z,8.10
2019-05-17T08:10:57.134Z,6.20
2019-05-17T08:16:00.403Z,6.10
2019-05-17T08:21:03.688Z,5.67
2019-05-17T08:26:06.968Z,5.20
2019-05-17T08:31:10.317Z,4.90
2019-05-17T08:36:13.592Z,4.70
2019-05-17T08:41:16.878Z,4.93
2019-05-17T08:46:20.405Z,4.70
2019-05-17T08:51:23.682Z,4.60
2019-05-17T08:56:26.995Z,4.17
2019-05-17T09:01:30.339Z,4.20
2019-05-17T09:06:33.875Z,4.60
2019-05-17T09:11:39.433Z,4.77
2019-05-17T09:16:42.155Z,4.17
2019-05-17T09:21:45.428Z,4.43
2019-05-17T09:26:49.266Z,4.93
2019-05-17T09:31:52.814Z,5.23
2019-05-17T09:36:56.089Z,4.83
2019-05-17T09:41:59.716Z,4.83
2019-05-17T09:47:02.953Z,4.70
2019-05-17T09:52:06.233Z,5.07
2019-05-17T09:57:10.027Z,5.10
2019-05-17T10:02:13.337Z,3.93
2019-05-17T10:07:16.606Z,3.60
2019-05-17T10:12:20.363Z,4.13
2019-05-17T10:17:23.741Z,3.70
2019-05-17T10:22:27.015Z,3.80
2019-05-17T10:27:30.559Z,3.90
2019-05-17T10:32:33.822Z,3.47
2019-05-17T10:37:40.345Z,3.87
2019-05-17T10:42:42.587Z,3.30
2019-05-17T10:47:45.849Z,2.83
2019-05-17T10:52:49.130Z,3.50
2019-05-17T10:57:52.633Z,3.10
2019-05-17T11:02:55.910Z,3.00
2019-05-17T11:07:59.882Z,2.30
2019-05-17T11:13:03.597Z,2.80
2019-05-17T11:18:06.941Z,2.90
2019-05-17T11:23:10.214Z,3.77
2019-05-17T11:28:13.731Z,3.47
2019-05-17T11:33:17.013Z,3.93
2019-05-17T11:38:20.287Z,4.20
2019-05-17T11:43:23.563Z,3.50
2019-05-17T11:48:26.851Z,3.17
2019-05-17T11:53:30.127Z,2.23
2019-05-17T11:58:35.783Z,3.90
2019-05-17T12:03:38.478Z,2.43
2019-05-17T12:08:42.280Z,1.90
2019-05-17T12:13:45.516Z,2.63
2019-05-17T12:18:48.798Z,2.60
2019-05-17T12:23:52.323Z,4.17
2019-05-17T12:28:55.841Z,3.67
2019-05-17T12:33:59.125Z,2.67
2019-05-17T12:39:03.151Z,2.73
2019-05-17T12:44:06.657Z,2.77
2019-05-17T12:49:09.950Z,1.63
2019-05-17T12:54:13.219Z,0.80
2019-05-17T12:59:16.505Z,0.60
2019-05-17T13:04:19.766Z,0.50
2019-05-17T13:09:23.044Z,0.43
2019-05-17T13:14:26.317Z,0.70
2019-05-17T13:19:29.849Z,0.53
2019-05-17T13:24:33.120Z,0.70
2019-05-17T13:29:36.397Z,0.40
2019-05-17T13:34:39.929Z,0.53
2019-05-17T13:39:43.214Z,0.90
2019-05-17T13:44:46.487Z,0.33
2019-05-17T13:49:49.998Z,0.60
2019-05-17T13:54:53.275Z,0.63
2019-05-17T13:59:57.706Z,1.27
2019-05-17T14:05:00.978Z,0.80
2019-05-17T14:10:06.043Z,0.80
2019-05-17T14:15:10.966Z,1.00
2019-05-17T14:20:14.517Z,1.10
2019-05-17T14:25:17.876Z,1.20
2019-05-17T14:30:21.629Z,1.60
2019-05-17T14:35:24.889Z,2.47
2019-05-17T14:41:00.673Z,2.17
2019-05-17T14:45:33.485Z,2.00
2019-05-17T14:50:36.745Z,2.77
2019-05-17T14:55:40.021Z,3.77
2019-05-17T15:00:43.285Z,3.90
2019-05-17T15:05:46.564Z,3.60
2019-05-17T15:10:49.837Z,2.93
2019-05-17T15:15:53.115Z,2.80
2019-05-17T15:20:56.639Z,3.27
2019-05-17T15:26:00.155Z,3.90
2019-05-17T15:31:03.467Z,3.23
2019-05-17T15:36:09.387Z,3.20
2019-05-17T15:41:12.914Z,2.97
2019-05-17T15:46:18.118Z,3.30
2019-05-17T15:51:21.403Z,3.60
2019-05-17T15:56:24.683Z,3.10
2019-05-17T16:01:28.533Z,3.53
2019-05-17T16:06:32.048Z,3.33
2019-05-17T16:11:35.562Z,2.83
2019-05-17T16:16:39.103Z,3.30
2019-05-17T16:21:42.381Z,3.20
2019-05-17T16:26:46.932Z,3.77
2019-05-17T16:31:50.483Z,3.30
2019-05-17T16:36:53.746Z,3.77
2019-05-17T16:41:57.094Z,3.90
2019-05-17T16:47:00.617Z,4.30
2019-05-17T16:52:03.904Z,3.67
2019-05-17T16:57:08.033Z,4.33
2019-05-17T17:02:11.633Z,4.63
2019-05-17T17:07:14.925Z,4.17
2019-05-17T17:12:18.240Z,3.80
2019-05-17T17:17:21.532Z,3.07
2019-05-17T17:22:25.176Z,3.57
2019-05-17T17:27:31.349Z,4.20
2019-05-17T17:32:34.651Z,4.10
2019-05-17T17:37:38.180Z,4.30
2019-05-17T17:42:41.509Z,4.93
2019-05-17T17:47:45.112Z,4.97
2019-05-17T17:52:50.753Z,4.90
2019-05-17T17:57:54.039Z,4.80
2019-05-17T18:02:57.701Z,4.80
2019-05-17T18:08:02.577Z,5.03
2019-05-17T18:13:06.180Z,4.63
2019-05-17T18:18:09.462Z,4.40
2019-05-17T18:23:12.820Z,4.20
2019-05-17T18:28:17.892Z,4.07
2019-05-17T18:33:21.211Z,4.00
2019-05-17T18:38:26.304Z,4.80
2019-05-17T18:43:29.594Z,4.40
2019-05-17T18:48:33.113Z,4.70
2019-05-17T18:53:36.672Z,5.10
2019-05-17T18:58:42.623Z,4.83
2019-05-17T19:03:46.162Z,5.60
2019-05-17T19:08:49.506Z,5.67
2019-05-17T19:13:52.800Z,5.70
2019-05-17T19:18:56.339Z,5.73
2019-05-17T19:24:00.473Z,6.00
2019-05-17T19:29:03.762Z,6.63
2019-05-17T19:34:07.288Z,6.07
2019-05-17T19:39:10.849Z,5.73
2019-05-17T19:44:14.134Z,5.37
2019-05-17T19:49:17.675Z,6.30
2019-05-17T19:54:22.878Z,6.63
2019-05-17T19:59:29.183Z,7.33
2019-05-17T20:04:32.471Z,6.83
2019-05-17T20:09:35.778Z,7.27
2019-05-17T20:14:39.485Z,6.77
2019-05-17T20:19:43.012Z,6.23
2019-05-17T20:24:46.537Z,6.90
2019-05-17T20:29:51.202Z,7.43
2019-05-17T20:34:56.088Z,7.80
2019-05-17T20:39:59.630Z,6.73
2019-05-17T20:45:06.796Z,7.87
2019-05-17T20:50:11.619Z,7.40
2019-05-17T20:55:15.072Z,7.67
2019-05-17T21:00:18.592Z,7.77
2019-05-17T21:05:22.105Z,7.90
2019-05-17T21:10:25.386Z,8.63
2019-05-17T21:15:30.811Z,8.40
2019-05-17T21:20:34.348Z,8.00
2019-05-17T21:25:39.248Z,7.90
2019-05-17T21:30:44.001Z,7.87
2019-05-17T21:35:47.501Z,7.77
2019-05-17T21:40:50.764Z,8.40
2019-05-17T21:46:03.824Z,8.23
2019-05-17T21:51:01.713Z,8.30
2019-05-17T21:56:04.934Z,7.83
2019-05-17T22:01:11.392Z,7.70
2019-05-17T22:06:14.985Z,8.57
2019-05-17T22:11:18.710Z,9.20
2019-05-17T22:16:23.633Z,9.57
2019-05-17T22:21:28.806Z,8.40
2019-05-17T22:26:32.341Z,8.77
2019-05-17T22:31:38.867Z,8.83
2019-05-17T22:36:40.970Z,8.53
2019-05-17T22:41:44.500Z,8.73
2019-05-17T22:46:48.024Z,8.57
2019-05-17T22:51:51.569Z,8.57
2019-05-17T22:56:54.852Z,8.60
2019-05-17T23:01:58.134Z,9.20
2019-05-17T23:07:01.643Z,8.60
2019-05-17T23:12:05.165Z,9.80
2019-05-17T23:17:08.729Z,8.97
2019-05-17T23:22:11.982Z,8.10
2019-05-17T23:27:15.260Z,8.70
2019-05-17T23:32:18.779Z,8.20
2019-05-17T23:37:22.310Z,8.10
2019-05-17T23:42:25.588Z,8.30
2019-05-17T23:47:29.105Z,8.57
2019-05-17T23:52:32.387Z,8.40
2019-05-17T23:57:35.673Z,8.63
